KECG/ECG METAR and TAF weather

Enter ICAO airport designator
Station Type Date Time Source
KECG METAR 2021/09/16 20:54 UTC NOAA

KECG 162054Z 08008KT 10SM FEW048 27/23 A3003 RMK AO2 SLP169 T02720233 55012


Station Type Date Time Source
KECG Decoded METAR 2021/09/16 20:54 UTC NOAA

ELIZABETH CITY C/G REGN AIRPORT , NC, United States (KECG) 36-15N 076-10W 11M
Sep 16, 2021 - 04:54 PM EDT / 2021.09.16 2054 UTC
Wind: from the E (080 degrees) at 9 MPH (8 KT):0
Visibility: 10 mile(s):0
Sky conditions: mostly clear
Temperature: 81.0 F (27.2 C)
Dew Point: 73.9 F (23.3 C)
Relative Humidity: 79%
Pressure (altimeter): 30.03 in. Hg (1016 hPa)
Pressure tendency: 0.04 inches (1.2 hPa) lower than three hours ago
ob: KECG 162054Z 08008KT 10SM FEW048 27/23 A3003 RMK AO2 SLP169 T02720233 55012
cycle: 21

Station Type Date Time Source
KECG TAF 2021/09/16 18:42 UTC NOAA

TAF KECG 161738Z 1618/1718 07011KT P6SM VCTS SCT025CB BKN080
FM162200 06011KT P6SM VCSH BKN040
FM170000 05009KT P6SM BKN040
FM170500 03008KT P6SM BKN015
FM170800 02008KT P6SM VCSH BKN009
FM171500 02013G20KT P6SM VCSH BKN015

Example: see airport list